createdAt,value
2023-01-03T00:06:36.612Z,100.50
2023-01-03T00:16:39.929Z,100.73
2023-01-03T00:26:44.686Z,100.89
2023-01-03T00:36:47.412Z,100.90
2023-01-03T00:46:51.633Z,101.23
2023-01-03T00:56:54.701Z,101.39
2023-01-03T01:07:01.289Z,101.51
2023-01-03T01:17:06.186Z,101.43
2023-01-03T01:27:10.544Z,101.48
2023-01-03T01:37:13.252Z,101.53
2023-01-03T01:47:24.999Z,100.61
2023-01-03T01:57:27.962Z,99.63
2023-01-03T02:07:32.014Z,100.14
2023-01-03T02:17:42.293Z,99.15
2023-01-03T02:28:30.535Z,99.23
2023-01-03T02:38:47.569Z,99.86
2023-01-03T02:48:55.152Z,100.16
2023-01-03T02:59:04.012Z,100.17
2023-01-03T03:09:06.986Z,99.21
2023-01-03T03:19:40.818Z,99.87
2023-01-03T03:29:43.577Z,99.84
2023-01-03T03:40:06.331Z,100.61
2023-01-03T03:50:15.498Z,100.44
2023-01-03T04:00:23.899Z,100.21
2023-01-03T04:10:27.223Z,100.10
2023-01-03T04:20:33.161Z,100.11
2023-01-03T04:30:35.857Z,100.48
2023-01-03T04:40:39.942Z,101.04
2023-01-03T04:50:42.649Z,100.83
2023-01-03T05:00:47.023Z,100.74
2023-01-03T05:10:53.321Z,101.31
2023-01-03T05:21:15.096Z,101.52
2023-01-03T05:31:17.992Z,101.31
2023-01-03T05:41:36.031Z,101.21
2023-01-03T05:51:38.763Z,101.28
2023-01-03T06:01:42.831Z,101.09
2023-01-03T06:11:45.770Z,100.47
2023-01-03T06:21:49.827Z,100.47
2023-01-03T06:31:52.519Z,101.27
2023-01-03T06:41:56.539Z,101.57
2023-01-03T06:52:16.813Z,101.80
2023-01-03T07:02:20.997Z,101.06
2023-01-03T07:12:41.500Z,101.09
2023-01-03T07:22:45.759Z,101.14
2023-01-03T07:32:48.575Z,100.95
2023-01-03T07:43:09.937Z,101.05
2023-01-03T07:53:17.150Z,101.08
2023-01-03T08:03:21.464Z,100.83
2023-01-03T08:13:25.147Z,101.18
2023-01-03T08:23:30.418Z,100.89
2023-01-03T08:33:37.796Z,100.32
2023-01-03T08:43:45.034Z,101.28
2023-01-03T08:53:47.841Z,100.29
2023-01-03T09:03:52.178Z,100.08
2023-01-03T09:13:56.800Z,100.11
2023-01-03T09:24:00.946Z,100.51
2023-01-03T09:34:05.313Z,99.80
2023-01-03T09:44:11.195Z,100.90
2023-01-03T09:54:33.675Z,100.96
2023-01-03T10:05:02.637Z,99.82
2023-01-03T10:15:18.156Z,100.52
2023-01-03T10:25:24.674Z,100.26
2023-01-03T10:35:30.372Z,100.74
2023-01-03T10:45:42.740Z,100.03
2023-01-03T10:55:50.760Z,99.73
2023-01-03T11:06:10.723Z,99.09
2023-01-03T11:16:15.753Z,98.03
2023-01-03T11:26:29.366Z,98.54
2023-01-03T11:36:40.460Z,95.30
2023-01-03T11:47:00.974Z,97.47
2023-01-03T11:57:10.802Z,96.91
2023-01-03T12:07:47.103Z,91.66
2023-01-03T12:17:48.424Z,94.86
2023-01-03T12:27:57.967Z,93.39
2023-01-03T12:38:00.664Z,95.46
2023-01-03T12:48:15.165Z,95.72
2023-01-03T12:58:30.272Z,95.86
2023-01-03T13:08:44.165Z,96.02
2023-01-03T13:18:46.883Z,96.27
2023-01-03T13:28:52.283Z,97.41
2023-01-03T13:38:55.606Z,98.07
2023-01-03T13:49:01.338Z,98.32
2023-01-03T13:59:17.791Z,98.06
2023-01-03T14:09:44.624Z,97.69
2023-01-03T14:19:52.205Z,97.83
2023-01-03T14:29:56.986Z,97.62
2023-01-03T14:40:02.138Z,97.21
2023-01-03T14:50:08.729Z,97.16
2023-01-03T15:00:18.931Z,97.26
2023-01-03T15:10:31.805Z,97.08
2023-01-03T15:20:38.383Z,96.98
2023-01-03T15:30:48.655Z,96.69
2023-01-03T15:40:51.919Z,96.40
2023-01-03T15:50:56.961Z,96.94
2023-01-03T16:01:01.480Z,97.31
2023-01-03T16:11:08.085Z,96.72
2023-01-03T16:21:11.179Z,97.22
2023-01-03T16:31:18.558Z,97.32
2023-01-03T16:41:21.324Z,97.27
2023-01-03T16:51:27.679Z,95.93
2023-01-03T17:01:30.676Z,95.60
2023-01-03T17:11:35.186Z,94.36
2023-01-03T17:21:37.896Z,93.66
2023-01-03T17:31:41.943Z,94.60
2023-01-03T17:42:02.360Z,95.43
2023-01-03T17:52:07.815Z,94.23
2023-01-03T18:02:18.857Z,95.64
2023-01-03T18:12:26.639Z,96.55
2023-01-03T18:22:30.037Z,95.70
2023-01-03T18:32:35.726Z,96.18
2023-01-03T18:42:56.182Z,96.20
2023-01-03T18:53:04.115Z,93.66
2023-01-03T19:03:21.131Z,92.31
2023-01-03T19:13:49.638Z,92.82
2023-01-03T19:23:59.776Z,92.95
2023-01-03T19:34:03.860Z,93.38
2023-01-03T19:44:06.561Z,92.85
2023-01-03T19:54:10.592Z,92.79
2023-01-03T20:04:13.894Z,92.52
2023-01-03T20:14:20.777Z,91.35
2023-01-03T20:24:25.809Z,92.38
2023-01-03T20:34:29.829Z,91.48
2023-01-03T20:44:32.539Z,92.01
2023-01-03T20:54:36.561Z,91.58
2023-01-03T21:04:39.640Z,91.31
2023-01-03T21:14:43.664Z,89.99
2023-01-03T21:24:48.689Z,90.85
2023-01-03T21:34:55.267Z,89.86
2023-01-03T21:44:58.138Z,89.80
2023-01-03T21:55:02.612Z,88.80
2023-01-03T22:05:06.048Z,88.86
2023-01-03T22:15:11.369Z,88.21
2023-01-03T22:25:18.895Z,88.73
2023-01-03T22:35:23.203Z,87.74
2023-01-03T22:45:26.679Z,88.00
2023-01-03T22:55:32.364Z,86.67
2023-01-03T23:05:36.367Z,85.74
2023-01-03T23:15:40.518Z,86.38
2023-01-03T23:25:43.254Z,85.66
2023-01-03T23:35:47.293Z,86.04
2023-01-03T23:45:50.042Z,85.65
2023-01-03T23:55:54.275Z,85.72
